sensor_id;sensor_type;location;lat;lon;timestamp;temperature;humidity
24217;DHT22;12356;49.386;8.688;2022-10-16T00:01:31;16.90;94.70
24217;DHT22;12356;49.386;8.688;2022-10-16T00:04:02;16.90;94.70
24217;DHT22;12356;49.386;8.688;2022-10-16T00:06:33;16.90;94.70
24217;DHT22;12356;49.386;8.688;2022-10-16T00:09:03;16.90;94.70
24217;DHT22;12356;49.386;8.688;2022-10-16T00:11:36;16.90;94.80
24217;DHT22;12356;49.386;8.688;2022-10-16T00:14:12;16.90;94.60
24217;DHT22;12356;49.386;8.688;2022-10-16T00:16:43;16.90;94.60
24217;DHT22;12356;49.386;8.688;2022-10-16T00:19:13;16.90;94.50
24217;DHT22;12356;49.386;8.688;2022-10-16T00:21:44;16.90;94.30
24217;DHT22;12356;49.386;8.688;2022-10-16T00:24:14;16.90;94.30
24217;DHT22;12356;49.386;8.688;2022-10-16T00:26:45;16.90;94.30
24217;DHT22;12356;49.386;8.688;2022-10-16T00:29:19;16.90;94.40
24217;DHT22;12356;49.386;8.688;2022-10-16T00:31:50;16.90;94.50
24217;DHT22;12356;49.386;8.688;2022-10-16T00:34:20;16.90;94.20
24217;DHT22;12356;49.386;8.688;2022-10-16T00:36:51;16.90;94.30
24217;DHT22;12356;49.386;8.688;2022-10-16T00:39:21;16.90;94.40
24217;DHT22;12356;49.386;8.688;2022-10-16T00:41:52;16.90;94.00
24217;DHT22;12356;49.386;8.688;2022-10-16T00:44:44;16.90;93.90
24217;DHT22;12356;49.386;8.688;2022-10-16T00:47:39;16.90;94.00
24217;DHT22;12356;49.386;8.688;2022-10-16T00:52:44;16.90;94.10
24217;DHT22;12356;49.386;8.688;2022-10-16T00:55:16;16.90;94.00
24217;DHT22;12356;49.386;8.688;2022-10-16T00:57:48;16.90;94.10
24217;DHT22;12356;49.386;8.688;2022-10-16T01:00:22;16.90;94.10
24217;DHT22;12356;49.386;8.688;2022-10-16T01:02:58;16.90;94.20
24217;DHT22;12356;49.386;8.688;2022-10-16T01:05:45;16.90;94.20
24217;DHT22;12356;49.386;8.688;2022-10-16T01:08:29;16.90;94.40
24217;DHT22;12356;49.386;8.688;2022-10-16T01:11:18;16.90;94.40
24217;DHT22;12356;49.386;8.688;2022-10-16T01:13:54;16.90;94.50
24217;DHT22;12356;49.386;8.688;2022-10-16T01:16:34;16.90;94.50
24217;DHT22;12356;49.386;8.688;2022-10-16T01:19:31;16.90;94.40
24217;DHT22;12356;49.386;8.688;2022-10-16T01:22:07;16.90;94.40
24217;DHT22;12356;49.386;8.688;2022-10-16T01:24:40;16.90;94.40
24217;DHT22;12356;49.386;8.688;2022-10-16T01:27:23;16.90;94.40
24217;DHT22;12356;49.386;8.688;2022-10-16T01:38:04;16.90;94.40
24217;DHT22;12356;49.386;8.688;2022-10-16T01:40:39;16.90;94.50
24217;DHT22;12356;49.386;8.688;2022-10-16T01:43:15;16.90;94.40
24217;DHT22;12356;49.386;8.688;2022-10-16T01:45:47;16.90;94.50
24217;DHT22;12356;49.386;8.688;2022-10-16T01:48:19;16.90;94.50
24217;DHT22;12356;49.386;8.688;2022-10-16T01:51:12;16.90;94.60
24217;DHT22;12356;49.386;8.688;2022-10-16T01:53:48;16.90;94.50
24217;DHT22;12356;49.386;8.688;2022-10-16T01:56:20;17.00;94.60
24217;DHT22;12356;49.386;8.688;2022-10-16T01:59:00;17.00;94.50
24217;DHT22;12356;49.386;8.688;2022-10-16T02:01:33;17.00;94.40
24217;DHT22;12356;49.386;8.688;2022-10-16T02:04:12;17.00;94.50
24217;DHT22;12356;49.386;8.688;2022-10-16T02:06:43;16.90;94.50
24217;DHT22;12356;49.386;8.688;2022-10-16T02:09:14;17.00;94.60
24217;DHT22;12356;49.386;8.688;2022-10-16T02:11:47;17.00;94.50
24217;DHT22;12356;49.386;8.688;2022-10-16T02:14:20;16.90;94.40
24217;DHT22;12356;49.386;8.688;2022-10-16T02:16:52;17.00;94.50
24217;DHT22;12356;49.386;8.688;2022-10-16T02:19:23;17.00;94.50
24217;DHT22;12356;49.386;8.688;2022-10-16T02:22:00;16.90;94.40
24217;DHT22;12356;49.386;8.688;2022-10-16T02:24:56;16.90;94.40
24217;DHT22;12356;49.386;8.688;2022-10-16T02:30:15;16.90;94.30
24217;DHT22;12356;49.386;8.688;2022-10-16T02:32:49;16.90;94.20
24217;DHT22;12356;49.386;8.688;2022-10-16T02:35:21;16.90;94.20
24217;DHT22;12356;49.386;8.688;2022-10-16T02:37:54;16.90;94.20
24217;DHT22;12356;49.386;8.688;2022-10-16T02:40:26;16.90;94.20
24217;DHT22;12356;49.386;8.688;2022-10-16T02:42:58;16.90;94.20
24217;DHT22;12356;49.386;8.688;2022-10-16T02:45:28;16.90;94.10
24217;DHT22;12356;49.386;8.688;2022-10-16T02:47:59;16.90;94.20
24217;DHT22;12356;49.386;8.688;2022-10-16T02:50:30;16.80;94.20
24217;DHT22;12356;49.386;8.688;2022-10-16T02:53:00;16.90;94.30
24217;DHT22;12356;49.386;8.688;2022-10-16T02:55:31;16.90;94.20
24217;DHT22;12356;49.386;8.688;2022-10-16T02:58:02;16.80;94.20
24217;DHT22;12356;49.386;8.688;2022-10-16T03:00:32;16.80;94.00
24217;DHT22;12356;49.386;8.688;2022-10-16T03:03:03;16.80;93.90
24217;DHT22;12356;49.386;8.688;2022-10-16T03:05:33;16.80;93.90
24217;DHT22;12356;49.386;8.688;2022-10-16T03:08:04;16.80;93.90
24217;DHT22;12356;49.386;8.688;2022-10-16T03:10:35;16.80;93.80
24217;DHT22;12356;49.386;8.688;2022-10-16T03:13:05;16.80;93.90
24217;DHT22;12356;49.386;8.688;2022-10-16T03:15:36;16.80;93.90
24217;DHT22;12356;49.386;8.688;2022-10-16T03:18:07;16.80;93.90
24217;DHT22;12356;49.386;8.688;2022-10-16T03:20:37;16.80;94.00
24217;DHT22;12356;49.386;8.688;2022-10-16T03:23:08;16.80;94.10
24217;DHT22;12356;49.386;8.688;2022-10-16T03:25:39;16.80;94.10
24217;DHT22;12356;49.386;8.688;2022-10-16T03:28:10;16.80;94.20
24217;DHT22;12356;49.386;8.688;2022-10-16T03:30:40;16.80;94.20
24217;DHT22;12356;49.386;8.688;2022-10-16T03:33:11;16.80;94.30
24217;DHT22;12356;49.386;8.688;2022-10-16T03:35:42;16.80;94.10
24217;DHT22;12356;49.386;8.688;2022-10-16T03:38:12;16.80;94.10
24217;DHT22;12356;49.386;8.688;2022-10-16T03:40:43;16.80;94.00
24217;DHT22;12356;49.386;8.688;2022-10-16T03:43:13;16.80;93.90
24217;DHT22;12356;49.386;8.688;2022-10-16T03:45:44;16.80;93.80
24217;DHT22;12356;49.386;8.688;2022-10-16T03:48:15;16.80;95.50
24217;DHT22;12356;49.386;8.688;2022-10-16T03:50:45;16.90;95.90
24217;DHT22;12356;49.386;8.688;2022-10-16T03:53:18;16.90;95.30
24217;DHT22;12356;49.386;8.688;2022-10-16T03:55:49;16.90;95.10
24217;DHT22;12356;49.386;8.688;2022-10-16T03:58:19;16.90;95.00
24217;DHT22;12356;49.386;8.688;2022-10-16T04:00:50;16.90;95.00
24217;DHT22;12356;49.386;8.688;2022-10-16T04:03:21;16.90;94.90
24217;DHT22;12356;49.386;8.688;2022-10-16T04:05:53;16.90;99.00
24217;DHT22;12356;49.386;8.688;2022-10-16T04:08:23;16.90;99.50
24217;DHT22;12356;49.386;8.688;2022-10-16T04:10:54;16.90;99.90
24217;DHT22;12356;49.386;8.688;2022-10-16T04:13:25;16.90;99.90
24217;DHT22;12356;49.386;8.688;2022-10-16T04:15:55;16.90;99.90
24217;DHT22;12356;49.386;8.688;2022-10-16T04:18:26;17.00;99.80
24217;DHT22;12356;49.386;8.688;2022-10-16T04:21:05;16.90;99.50
24217;DHT22;12356;49.386;8.688;2022-10-16T04:23:36;17.00;98.80
24217;DHT22;12356;49.386;8.688;2022-10-16T04:26:07;17.00;98.20
24217;DHT22;12356;49.386;8.688;2022-10-16T04:28:37;17.00;97.20
24217;DHT22;12356;49.386;8.688;2022-10-16T04:31:08;17.00;96.60
24217;DHT22;12356;49.386;8.688;2022-10-16T04:33:42;17.00;95.90
24217;DHT22;12356;49.386;8.688;2022-10-16T04:36:13;17.00;94.50
24217;DHT22;12356;49.386;8.688;2022-10-16T04:38:44;17.00;94.50
24217;DHT22;12356;49.386;8.688;2022-10-16T04:41:14;17.00;93.90
24217;DHT22;12356;49.386;8.688;2022-10-16T04:43:45;17.00;93.60
24217;DHT22;12356;49.386;8.688;2022-10-16T04:46:16;17.00;93.50
24217;DHT22;12356;49.386;8.688;2022-10-16T04:48:46;17.00;93.40
24217;DHT22;12356;49.386;8.688;2022-10-16T04:51:17;17.00;93.30
24217;DHT22;12356;49.386;8.688;2022-10-16T04:53:49;17.00;93.20
24217;DHT22;12356;49.386;8.688;2022-10-16T04:56:19;17.00;93.00
24217;DHT22;12356;49.386;8.688;2022-10-16T04:58:51;17.00;93.00
24217;DHT22;12356;49.386;8.688;2022-10-16T05:01:21;17.00;93.10
24217;DHT22;12356;49.386;8.688;2022-10-16T05:03:52;17.00;93.00
24217;DHT22;12356;49.386;8.688;2022-10-16T05:06:23;17.00;93.00
24217;DHT22;12356;49.386;8.688;2022-10-16T05:08:53;17.00;92.90
24217;DHT22;12356;49.386;8.688;2022-10-16T05:11:24;16.90;92.80
24217;DHT22;12356;49.386;8.688;2022-10-16T05:13:54;16.90;93.00
24217;DHT22;12356;49.386;8.688;2022-10-16T05:16:25;16.90;92.90
24217;DHT22;12356;49.386;8.688;2022-10-16T05:18:56;16.90;93.00
24217;DHT22;12356;49.386;8.688;2022-10-16T05:21:27;16.90;93.00
24217;DHT22;12356;49.386;8.688;2022-10-16T05:23:57;17.00;93.20
24217;DHT22;12356;49.386;8.688;2022-10-16T05:26:28;17.00;93.00
24217;DHT22;12356;49.386;8.688;2022-10-16T05:28:58;16.90;92.80
24217;DHT22;12356;49.386;8.688;2022-10-16T05:31:29;16.90;92.90
24217;DHT22;12356;49.386;8.688;2022-10-16T05:34:00;16.90;92.90
24217;DHT22;12356;49.386;8.688;2022-10-16T05:36:31;16.90;93.00
24217;DHT22;12356;49.386;8.688;2022-10-16T05:39:02;16.80;92.90
24217;DHT22;12356;49.386;8.688;2022-10-16T05:41:33;16.80;92.90
24217;DHT22;12356;49.386;8.688;2022-10-16T05:44:04;16.80;92.90
24217;DHT22;12356;49.386;8.688;2022-10-16T05:46:36;16.90;92.90
24217;DHT22;12356;49.386;8.688;2022-10-16T05:49:06;16.90;92.90
24217;DHT22;12356;49.386;8.688;2022-10-16T05:51:37;16.90;92.90
24217;DHT22;12356;49.386;8.688;2022-10-16T05:54:08;16.90;92.70
24217;DHT22;12356;49.386;8.688;2022-10-16T05:56:39;16.90;92.70
24217;DHT22;12356;49.386;8.688;2022-10-16T05:59:09;16.90;92.70
24217;DHT22;12356;49.386;8.688;2022-10-16T06:01:40;16.90;92.70
24217;DHT22;12356;49.386;8.688;2022-10-16T06:04:10;16.90;92.40
24217;DHT22;12356;49.386;8.688;2022-10-16T06:06:42;16.90;92.30
24217;DHT22;12356;49.386;8.688;2022-10-16T06:09:12;16.90;92.00
24217;DHT22;12356;49.386;8.688;2022-10-16T06:11:43;17.00;91.70
24217;DHT22;12356;49.386;8.688;2022-10-16T06:14:14;17.00;91.40
24217;DHT22;12356;49.386;8.688;2022-10-16T06:16:44;17.00;91.30
24217;DHT22;12356;49.386;8.688;2022-10-16T06:19:15;17.00;90.80
24217;DHT22;12356;49.386;8.688;2022-10-16T06:21:46;17.00;90.70
24217;DHT22;12356;49.386;8.688;2022-10-16T06:24:17;17.10;90.50
24217;DHT22;12356;49.386;8.688;2022-10-16T06:26:47;17.10;90.20
24217;DHT22;12356;49.386;8.688;2022-10-16T06:29:18;17.10;90.10
24217;DHT22;12356;49.386;8.688;2022-10-16T06:31:49;17.10;90.00
24217;DHT22;12356;49.386;8.688;2022-10-16T06:34:19;17.10;90.10
24217;DHT22;12356;49.386;8.688;2022-10-16T06:36:50;17.10;90.30
24217;DHT22;12356;49.386;8.688;2022-10-16T06:39:21;17.20;90.40
24217;DHT22;12356;49.386;8.688;2022-10-16T06:41:51;17.10;90.80
24217;DHT22;12356;49.386;8.688;2022-10-16T06:44:22;17.20;90.90
24217;DHT22;12356;49.386;8.688;2022-10-16T06:46:52;17.20;91.00
24217;DHT22;12356;49.386;8.688;2022-10-16T06:49:24;17.20;91.10
24217;DHT22;12356;49.386;8.688;2022-10-16T06:51:55;17.20;91.40
24217;DHT22;12356;49.386;8.688;2022-10-16T06:54:25;17.20;91.30
24217;DHT22;12356;49.386;8.688;2022-10-16T06:56:56;17.20;91.30
24217;DHT22;12356;49.386;8.688;2022-10-16T06:59:27;17.20;91.30
24217;DHT22;12356;49.386;8.688;2022-10-16T07:01:58;17.20;91.30
24217;DHT22;12356;49.386;8.688;2022-10-16T07:04:28;17.20;91.40
24217;DHT22;12356;49.386;8.688;2022-10-16T07:07:00;17.30;91.40
24217;DHT22;12356;49.386;8.688;2022-10-16T07:09:31;17.30;91.40
24217;DHT22;12356;49.386;8.688;2022-10-16T07:12:02;17.30;91.40
24217;DHT22;12356;49.386;8.688;2022-10-16T07:14:32;17.30;91.50
24217;DHT22;12356;49.386;8.688;2022-10-16T07:17:03;17.30;91.60
24217;DHT22;12356;49.386;8.688;2022-10-16T07:19:34;17.30;91.90
24217;DHT22;12356;49.386;8.688;2022-10-16T07:22:04;17.30;91.80
24217;DHT22;12356;49.386;8.688;2022-10-16T07:24:35;17.30;91.80
24217;DHT22;12356;49.386;8.688;2022-10-16T07:27:06;17.30;91.70
24217;DHT22;12356;49.386;8.688;2022-10-16T07:29:37;17.40;91.70
24217;DHT22;12356;49.386;8.688;2022-10-16T07:32:07;17.40;91.60
24217;DHT22;12356;49.386;8.688;2022-10-16T07:34:38;17.40;91.90
24217;DHT22;12356;49.386;8.688;2022-10-16T07:37:08;17.40;92.40
24217;DHT22;12356;49.386;8.688;2022-10-16T07:39:39;17.40;92.60
24217;DHT22;12356;49.386;8.688;2022-10-16T07:42:10;17.50;92.70
24217;DHT22;12356;49.386;8.688;2022-10-16T07:44:40;17.50;92.60
24217;DHT22;12356;49.386;8.688;2022-10-16T07:47:11;17.50;92.70
24217;DHT22;12356;49.386;8.688;2022-10-16T07:49:42;17.50;92.50
24217;DHT22;12356;49.386;8.688;2022-10-16T07:52:12;17.50;92.30
24217;DHT22;12356;49.386;8.688;2022-10-16T07:54:43;17.50;92.00
24217;DHT22;12356;49.386;8.688;2022-10-16T07:57:13;17.60;91.80
24217;DHT22;12356;49.386;8.688;2022-10-16T07:59:49;17.60;91.70
24217;DHT22;12356;49.386;8.688;2022-10-16T08:02:20;17.60;91.80
24217;DHT22;12356;49.386;8.688;2022-10-16T08:04:50;17.70;91.90
24217;DHT22;12356;49.386;8.688;2022-10-16T08:07:21;17.70;91.80
24217;DHT22;12356;49.386;8.688;2022-10-16T08:09:52;17.70;91.90
24217;DHT22;12356;49.386;8.688;2022-10-16T08:12:23;17.70;92.10
24217;DHT22;12356;49.386;8.688;2022-10-16T08:14:53;17.80;92.00
24217;DHT22;12356;49.386;8.688;2022-10-16T08:17:24;17.80;91.90
24217;DHT22;12356;49.386;8.688;2022-10-16T08:19:54;17.80;92.00
24217;DHT22;12356;49.386;8.688;2022-10-16T08:22:25;17.80;92.00
24217;DHT22;12356;49.386;8.688;2022-10-16T08:24:56;17.90;91.90
24217;DHT22;12356;49.386;8.688;2022-10-16T08:27:31;17.90;91.80
24217;DHT22;12356;49.386;8.688;2022-10-16T08:30:03;17.90;91.40
24217;DHT22;12356;49.386;8.688;2022-10-16T08:32:33;17.90;91.00
24217;DHT22;12356;49.386;8.688;2022-10-16T08:35:04;17.90;90.70
24217;DHT22;12356;49.386;8.688;2022-10-16T08:37:35;17.90;90.50
24217;DHT22;12356;49.386;8.688;2022-10-16T08:40:11;17.90;90.20
24217;DHT22;12356;49.386;8.688;2022-10-16T08:51:27;18.00;90.00
24217;DHT22;12356;49.386;8.688;2022-10-16T08:54:35;18.00;90.00
24217;DHT22;12356;49.386;8.688;2022-10-16T08:57:19;18.00;90.20
24217;DHT22;12356;49.386;8.688;2022-10-16T08:59:51;18.00;90.10
24217;DHT22;12356;49.386;8.688;2022-10-16T09:02:35;18.00;90.20
24217;DHT22;12356;49.386;8.688;2022-10-16T09:11:16;18.10;90.20
24217;DHT22;12356;49.386;8.688;2022-10-16T09:14:04;18.10;90.10
24217;DHT22;12356;49.386;8.688;2022-10-16T09:16:46;18.10;89.40
24217;DHT22;12356;49.386;8.688;2022-10-16T09:19:38;18.20;85.90
24217;DHT22;12356;49.386;8.688;2022-10-16T09:22:14;18.30;80.40
24217;DHT22;12356;49.386;8.688;2022-10-16T09:24:45;18.30;81.60
24217;DHT22;12356;49.386;8.688;2022-10-16T09:27:16;18.30;82.50
24217;DHT22;12356;49.386;8.688;2022-10-16T09:29:47;18.40;78.20
24217;DHT22;12356;49.386;8.688;2022-10-16T09:32:19;18.40;78.40
24217;DHT22;12356;49.386;8.688;2022-10-16T09:34:53;18.30;80.10
24217;DHT22;12356;49.386;8.688;2022-10-16T09:37:26;18.40;78.10
24217;DHT22;12356;49.386;8.688;2022-10-16T09:39:57;18.40;76.50
24217;DHT22;12356;49.386;8.688;2022-10-16T09:42:31;18.40;77.00
24217;DHT22;12356;49.386;8.688;2022-10-16T09:45:03;18.40;77.50
24217;DHT22;12356;49.386;8.688;2022-10-16T09:47:44;18.40;78.50
24217;DHT22;12356;49.386;8.688;2022-10-16T09:50:26;18.40;78.60
24217;DHT22;12356;49.386;8.688;2022-10-16T09:53:12;18.40;78.80
24217;DHT22;12356;49.386;8.688;2022-10-16T09:55:50;18.40;78.60
24217;DHT22;12356;49.386;8.688;2022-10-16T09:58:22;18.40;78.70
24217;DHT22;12356;49.386;8.688;2022-10-16T10:00:54;18.40;78.80
24217;DHT22;12356;49.386;8.688;2022-10-16T10:03:36;18.40;78.70
24217;DHT22;12356;49.386;8.688;2022-10-16T10:06:28;18.40;79.70
24217;DHT22;12356;49.386;8.688;2022-10-16T10:11:49;18.50;79.80
24217;DHT22;12356;49.386;8.688;2022-10-16T10:14:39;18.50;79.70
24217;DHT22;12356;49.386;8.688;2022-10-16T10:17:17;18.50;80.50
24217;DHT22;12356;49.386;8.688;2022-10-16T10:22:31;18.60;79.90
24217;DHT22;12356;49.386;8.688;2022-10-16T10:38:49;18.80;81.10
24217;DHT22;12356;49.386;8.688;2022-10-16T10:46:45;18.90;79.40
24217;DHT22;12356;49.386;8.688;2022-10-16T10:49:26;19.00;79.50
24217;DHT22;12356;49.386;8.688;2022-10-16T10:52:23;19.00;78.80
24217;DHT22;12356;49.386;8.688;2022-10-16T10:55:15;19.10;79.10
24217;DHT22;12356;49.386;8.688;2022-10-16T11:00:42;19.20;79.40
24217;DHT22;12356;49.386;8.688;2022-10-16T11:03:39;19.20;78.50
24217;DHT22;12356;49.386;8.688;2022-10-16T11:06:39;19.30;78.20
24217;DHT22;12356;49.386;8.688;2022-10-16T11:09:18;19.40;74.90
24217;DHT22;12356;49.386;8.688;2022-10-16T11:12:00;19.40;74.80
24217;DHT22;12356;49.386;8.688;2022-10-16T11:14:40;19.40;75.50
24217;DHT22;12356;49.386;8.688;2022-10-16T11:17:27;19.50;73.90
24217;DHT22;12356;49.386;8.688;2022-10-16T11:22:39;19.60;74.50
24217;DHT22;12356;49.386;8.688;2022-10-16T11:25:30;19.60;74.50
24217;DHT22;12356;49.386;8.688;2022-10-16T11:28:18;19.70;75.40
24217;DHT22;12356;49.386;8.688;2022-10-16T11:30:55;19.70;74.20
24217;DHT22;12356;49.386;8.688;2022-10-16T11:36:21;19.80;72.60
24217;DHT22;12356;49.386;8.688;2022-10-16T11:38:56;19.90;72.60
24217;DHT22;12356;49.386;8.688;2022-10-16T11:41:39;19.90;72.50
24217;DHT22;12356;49.386;8.688;2022-10-16T11:49:45;20.00;70.60
24217;DHT22;12356;49.386;8.688;2022-10-16T11:52:26;20.00;70.20
24217;DHT22;12356;49.386;8.688;2022-10-16T11:55:16;20.10;68.10
24217;DHT22;12356;49.386;8.688;2022-10-16T11:57:54;20.10;67.90
24217;DHT22;12356;49.386;8.688;2022-10-16T12:00:31;20.10;67.10
24217;DHT22;12356;49.386;8.688;2022-10-16T12:06:02;20.10;66.30
24217;DHT22;12356;49.386;8.688;2022-10-16T12:08:37;20.10;66.20
24217;DHT22;12356;49.386;8.688;2022-10-16T12:14:16;20.20;66.10
24217;DHT22;12356;49.386;8.688;2022-10-16T12:19:24;20.30;65.00
24217;DHT22;12356;49.386;8.688;2022-10-16T12:21:57;20.20;65.60
24217;DHT22;12356;49.386;8.688;2022-10-16T12:27:18;20.20;66.10
24217;DHT22;12356;49.386;8.688;2022-10-16T12:29:55;20.20;65.90
24217;DHT22;12356;49.386;8.688;2022-10-16T12:32:32;20.10;66.30
24217;DHT22;12356;49.386;8.688;2022-10-16T12:35:05;20.10;66.00
24217;DHT22;12356;49.386;8.688;2022-10-16T12:37:38;20.10;66.10
24217;DHT22;12356;49.386;8.688;2022-10-16T12:40:14;20.10;66.20
24217;DHT22;12356;49.386;8.688;2022-10-16T12:42:47;20.10;65.90
24217;DHT22;12356;49.386;8.688;2022-10-16T12:45:29;20.10;66.30
24217;DHT22;12356;49.386;8.688;2022-10-16T12:48:04;20.10;67.00
24217;DHT22;12356;49.386;8.688;2022-10-16T12:50:48;20.10;67.50
24217;DHT22;12356;49.386;8.688;2022-10-16T12:53:27;20.10;67.60
24217;DHT22;12356;49.386;8.688;2022-10-16T12:57:06;20.10;66.50
24217;DHT22;12356;49.386;8.688;2022-10-16T13:11:00;20.10;65.40
24217;DHT22;12356;49.386;8.688;2022-10-16T13:19:42;20.10;65.80
24217;DHT22;12356;49.386;8.688;2022-10-16T13:22:24;20.10;65.30
24217;DHT22;12356;49.386;8.688;2022-10-16T13:28:08;20.10;66.10
24217;DHT22;12356;49.386;8.688;2022-10-16T13:30:50;20.10;66.30
24217;DHT22;12356;49.386;8.688;2022-10-16T13:33:40;20.10;66.00
24217;DHT22;12356;49.386;8.688;2022-10-16T13:36:20;20.10;64.70
24217;DHT22;12356;49.386;8.688;2022-10-16T13:39:06;20.00;64.80
24217;DHT22;12356;49.386;8.688;2022-10-16T13:41:40;20.00;65.90
24217;DHT22;12356;49.386;8.688;2022-10-16T13:44:18;20.00;65.50
24217;DHT22;12356;49.386;8.688;2022-10-16T13:47:02;19.90;65.00
24217;DHT22;12356;49.386;8.688;2022-10-16T13:49:33;19.90;65.10
24217;DHT22;12356;49.386;8.688;2022-10-16T13:52:04;19.90;66.10
24217;DHT22;12356;49.386;8.688;2022-10-16T13:54:34;19.90;66.50
24217;DHT22;12356;49.386;8.688;2022-10-16T13:57:05;19.80;67.70
24217;DHT22;12356;49.386;8.688;2022-10-16T13:59:37;19.80;68.10
24217;DHT22;12356;49.386;8.688;2022-10-16T14:04:51;19.80;70.50
24217;DHT22;12356;49.386;8.688;2022-10-16T14:07:25;19.70;71.20
24217;DHT22;12356;49.386;8.688;2022-10-16T14:10:05;19.70;70.50
24217;DHT22;12356;49.386;8.688;2022-10-16T14:12:36;19.70;70.70
24217;DHT22;12356;49.386;8.688;2022-10-16T14:15:17;19.60;70.40
24217;DHT22;12356;49.386;8.688;2022-10-16T14:17:50;19.60;70.20
24217;DHT22;12356;49.386;8.688;2022-10-16T14:20:26;19.60;69.70
24217;DHT22;12356;49.386;8.688;2022-10-16T14:23:17;19.60;70.30
24217;DHT22;12356;49.386;8.688;2022-10-16T14:25:49;19.60;70.80
24217;DHT22;12356;49.386;8.688;2022-10-16T14:28:23;19.60;71.40
24217;DHT22;12356;49.386;8.688;2022-10-16T14:30:56;19.60;72.10
24217;DHT22;12356;49.386;8.688;2022-10-16T14:38:34;19.50;72.10
24217;DHT22;12356;49.386;8.688;2022-10-16T14:41:05;19.40;71.50
24217;DHT22;12356;49.386;8.688;2022-10-16T14:43:41;19.40;71.60
24217;DHT22;12356;49.386;8.688;2022-10-16T14:46:21;19.40;71.60
24217;DHT22;12356;49.386;8.688;2022-10-16T14:51:41;19.40;72.10
24217;DHT22;12356;49.386;8.688;2022-10-16T14:54:15;19.30;71.50
24217;DHT22;12356;49.386;8.688;2022-10-16T14:56:56;19.30;70.90
24217;DHT22;12356;49.386;8.688;2022-10-16T14:59:37;19.30;71.60
24217;DHT22;12356;49.386;8.688;2022-10-16T15:02:33;19.20;72.20
24217;DHT22;12356;49.386;8.688;2022-10-16T15:05:18;19.20;71.50
24217;DHT22;12356;49.386;8.688;2022-10-16T15:07:49;19.20;71.20
24217;DHT22;12356;49.386;8.688;2022-10-16T15:10:22;19.30;70.10
24217;DHT22;12356;49.386;8.688;2022-10-16T15:12:53;19.30;70.50
24217;DHT22;12356;49.386;8.688;2022-10-16T15:17:57;19.30;66.90
24217;DHT22;12356;49.386;8.688;2022-10-16T15:20:36;19.30;66.30
24217;DHT22;12356;49.386;8.688;2022-10-16T15:23:16;19.40;66.00
24217;DHT22;12356;49.386;8.688;2022-10-16T15:25:51;19.40;66.30
24217;DHT22;12356;49.386;8.688;2022-10-16T15:28:23;19.40;66.50
24217;DHT22;12356;49.386;8.688;2022-10-16T15:30:55;19.40;66.80
24217;DHT22;12356;49.386;8.688;2022-10-16T15:33:27;19.40;66.70
24217;DHT22;12356;49.386;8.688;2022-10-16T15:36:03;19.40;67.00
24217;DHT22;12356;49.386;8.688;2022-10-16T15:38:34;19.40;67.80
24217;DHT22;12356;49.386;8.688;2022-10-16T15:41:05;19.40;67.40
24217;DHT22;12356;49.386;8.688;2022-10-16T15:43:35;19.40;66.60
24217;DHT22;12356;49.386;8.688;2022-10-16T15:46:08;19.40;67.60
24217;DHT22;12356;49.386;8.688;2022-10-16T15:48:39;19.30;67.70
24217;DHT22;12356;49.386;8.688;2022-10-16T15:51:10;19.30;67.20
24217;DHT22;12356;49.386;8.688;2022-10-16T15:53:41;19.30;67.50
24217;DHT22;12356;49.386;8.688;2022-10-16T15:56:13;19.30;67.60
24217;DHT22;12356;49.386;8.688;2022-10-16T15:58:44;19.30;67.70
24217;DHT22;12356;49.386;8.688;2022-10-16T16:01:14;19.30;68.00
24217;DHT22;12356;49.386;8.688;2022-10-16T16:03:45;19.20;67.70
24217;DHT22;12356;49.386;8.688;2022-10-16T16:06:16;19.20;67.70
24217;DHT22;12356;49.386;8.688;2022-10-16T16:08:46;19.20;68.60
24217;DHT22;12356;49.386;8.688;2022-10-16T16:11:18;19.20;69.70
24217;DHT22;12356;49.386;8.688;2022-10-16T16:13:49;19.10;69.30
24217;DHT22;12356;49.386;8.688;2022-10-16T16:16:19;19.10;69.50
24217;DHT22;12356;49.386;8.688;2022-10-16T16:18:52;19.10;69.00
24217;DHT22;12356;49.386;8.688;2022-10-16T16:21:23;19.10;67.80
24217;DHT22;12356;49.386;8.688;2022-10-16T16:23:54;19.10;66.60
24217;DHT22;12356;49.386;8.688;2022-10-16T16:26:29;19.10;67.10
24217;DHT22;12356;49.386;8.688;2022-10-16T16:29:04;19.00;67.60
24217;DHT22;12356;49.386;8.688;2022-10-16T16:31:35;19.10;66.30
24217;DHT22;12356;49.386;8.688;2022-10-16T16:34:05;19.00;66.30
24217;DHT22;12356;49.386;8.688;2022-10-16T16:36:36;19.10;64.40
24217;DHT22;12356;49.386;8.688;2022-10-16T16:39:07;19.10;64.50
24217;DHT22;12356;49.386;8.688;2022-10-16T16:41:38;19.10;63.70
24217;DHT22;12356;49.386;8.688;2022-10-16T16:44:10;19.20;63.40
24217;DHT22;12356;49.386;8.688;2022-10-16T16:46:42;19.20;63.40
24217;DHT22;12356;49.386;8.688;2022-10-16T16:49:13;19.20;63.70
24217;DHT22;12356;49.386;8.688;2022-10-16T16:51:45;19.20;62.60
24217;DHT22;12356;49.386;8.688;2022-10-16T16:54:16;19.20;62.40
24217;DHT22;12356;49.386;8.688;2022-10-16T16:56:46;19.30;62.30
24217;DHT22;12356;49.386;8.688;2022-10-16T16:59:19;19.30;62.50
24217;DHT22;12356;49.386;8.688;2022-10-16T17:01:51;19.40;62.60
24217;DHT22;12356;49.386;8.688;2022-10-16T17:04:21;19.40;62.80
24217;DHT22;12356;49.386;8.688;2022-10-16T17:06:53;19.40;62.90
24217;DHT22;12356;49.386;8.688;2022-10-16T17:09:24;19.50;62.80
24217;DHT22;12356;49.386;8.688;2022-10-16T17:11:55;19.50;62.70
24217;DHT22;12356;49.386;8.688;2022-10-16T17:14:26;19.50;61.80
24217;DHT22;12356;49.386;8.688;2022-10-16T17:16:56;19.50;61.70
24217;DHT22;12356;49.386;8.688;2022-10-16T17:19:28;19.50;61.80
24217;DHT22;12356;49.386;8.688;2022-10-16T17:21:58;19.50;61.80
24217;DHT22;12356;49.386;8.688;2022-10-16T17:24:29;19.50;61.80
24217;DHT22;12356;49.386;8.688;2022-10-16T17:27:00;19.50;61.90
24217;DHT22;12356;49.386;8.688;2022-10-16T17:29:30;19.50;61.80
24217;DHT22;12356;49.386;8.688;2022-10-16T17:32:01;19.50;61.20
24217;DHT22;12356;49.386;8.688;2022-10-16T17:34:31;19.50;61.50
24217;DHT22;12356;49.386;8.688;2022-10-16T17:37:02;19.50;61.70
24217;DHT22;12356;49.386;8.688;2022-10-16T17:39:33;19.60;61.10
24217;DHT22;12356;49.386;8.688;2022-10-16T17:42:04;19.50;61.50
24217;DHT22;12356;49.386;8.688;2022-10-16T17:44:34;19.60;61.50
24217;DHT22;12356;49.386;8.688;2022-10-16T17:47:05;19.60;60.60
24217;DHT22;12356;49.386;8.688;2022-10-16T17:49:35;19.60;61.20
24217;DHT22;12356;49.386;8.688;2022-10-16T17:52:06;19.60;61.20
24217;DHT22;12356;49.386;8.688;2022-10-16T17:54:37;19.50;61.40
24217;DHT22;12356;49.386;8.688;2022-10-16T17:57:09;19.50;61.50
24217;DHT22;12356;49.386;8.688;2022-10-16T17:59:40;19.60;60.10
24217;DHT22;12356;49.386;8.688;2022-10-16T18:02:10;19.60;59.60
24217;DHT22;12356;49.386;8.688;2022-10-16T18:04:41;19.60;59.50